<?xml version="1.0" encoding="utf-8"?>
<gpx xmlns:xsi="http://www.w3.org/2001/XMLSchema-instance" xmlns:xsd="http://www.w3.org/2001/XMLSchema" version="1.1" creator="Shapelink.com" xmlns="http://www.topografix.com/GPX/1/1" xmlns:gpxtpx="http://www.garmin.com/xmlschemas/TrackPointExtension/v1">
  <metadata>
    <name>Övrigt 1.98 km, 2019-05-31</name>
    <desc></desc>
    <author><name>Marian Moron</name></author> 
    <time>2019-05-31T20:34:20Z</time>
  </metadata>
  <trk>
    <name>Övrigt 1.98 km, 2019-05-31</name>
    <trkseg>
      <trkpt lat="51.229658821892" lon="4.457727855915">
        <ele>34.4</ele>
        <time>2019-05-31T20:34:20Z</time>
      </trkpt>
      <trkpt lat="51.229892257807" lon="4.457971936843">
        <ele>0</ele>
        <time>2019-05-31T20:34:26Z</time>
      </trkpt>
      <trkpt lat="51.230040449799" lon="4.458657240987">
        <ele>0</ele>
        <time>2019-05-31T20:34:58Z</time>
      </trkpt>
      <trkpt lat="51.230018489221" lon="4.458704431084">
        <ele>0</ele>
        <time>2019-05-31T20:35:17Z</time>
      </trkpt>
      <trkpt lat="51.230463568111" lon="4.458569231037">
        <ele>0</ele>
        <time>2019-05-31T20:35:52Z</time>
      </trkpt>
      <trkpt lat="51.230607988248" lon="4.45851449723">
        <ele>0</ele>
        <time>2019-05-31T20:36:07Z</time>
      </trkpt>
      <trkpt lat="51.230741511915" lon="4.458488094245">
        <ele>0</ele>
        <time>2019-05-31T20:36:24Z</time>
      </trkpt>
      <trkpt lat="51.230835975928" lon="4.458493291023">
        <ele>0</ele>
        <time>2019-05-31T20:36:45Z</time>
      </trkpt>
      <trkpt lat="51.230904958965" lon="4.458475521395">
        <ele>0</ele>
        <time>2019-05-31T20:36:54Z</time>
      </trkpt>
      <trkpt lat="51.231027837619" lon="4.458440987967">
        <ele>0</ele>
        <time>2019-05-31T20:37:04Z</time>
      </trkpt>
      <trkpt lat="51.231153147024" lon="4.458374603319">
        <ele>0</ele>
        <time>2019-05-31T20:37:21Z</time>
      </trkpt>
      <trkpt lat="51.231187931909" lon="4.458350631085">
        <ele>0</ele>
        <time>2019-05-31T20:37:32Z</time>
      </trkpt>
      <trkpt lat="51.231225063726" lon="4.458319953331">
        <ele>0</ele>
        <time>2019-05-31T20:37:36Z</time>
      </trkpt>
      <trkpt lat="51.23124065406" lon="4.458300172047">
        <ele>0</ele>
        <time>2019-05-31T20:37:40Z</time>
      </trkpt>
      <trkpt lat="51.231264877751" lon="4.458293382708">
        <ele>0</ele>
        <time>2019-05-31T20:37:42Z</time>
      </trkpt>
      <trkpt lat="51.231343164697" lon="4.458268656103">
        <ele>0</ele>
        <time>2019-05-31T20:37:50Z</time>
      </trkpt>
      <trkpt lat="51.231396892676" lon="4.458226914241">
        <ele>0</ele>
        <time>2019-05-31T20:37:59Z</time>
      </trkpt>
      <trkpt lat="51.231497810752" lon="4.458251976122">
        <ele>0</ele>
        <time>2019-05-31T20:38:09Z</time>
      </trkpt>
      <trkpt lat="51.23165555811" lon="4.458674926796">
        <ele>0</ele>
        <time>2019-05-31T20:38:32Z</time>
      </trkpt>
      <trkpt lat="51.231675004118" lon="4.458857233121">
        <ele>0</ele>
        <time>2019-05-31T20:38:41Z</time>
      </trkpt>
      <trkpt lat="51.231738036006" lon="4.459121933523">
        <ele>0</ele>
        <time>2019-05-31T20:38:55Z</time>
      </trkpt>
      <trkpt lat="51.231751866141" lon="4.459207512722">
        <ele>0</ele>
        <time>2019-05-31T20:39:01Z</time>
      </trkpt>
      <trkpt lat="51.231809701251" lon="4.459531892252">
        <ele>0</ele>
        <time>2019-05-31T20:39:24Z</time>
      </trkpt>
      <trkpt lat="51.231821100635" lon="4.459637168916">
        <ele>0</ele>
        <time>2019-05-31T20:39:44Z</time>
      </trkpt>
      <trkpt lat="51.23189192769" lon="4.459937408574">
        <ele>0</ele>
        <time>2019-05-31T20:40:00Z</time>
      </trkpt>
      <trkpt lat="51.231970130817" lon="4.460369746976">
        <ele>0</ele>
        <time>2019-05-31T20:40:19Z</time>
      </trkpt>
      <trkpt lat="51.232057386396" lon="4.460654061024">
        <ele>0</ele>
        <time>2019-05-31T20:40:38Z</time>
      </trkpt>
      <trkpt lat="51.232156376635" lon="4.46137188694">
        <ele>0</ele>
        <time>2019-05-31T20:41:13Z</time>
      </trkpt>
      <trkpt lat="51.232166770191" lon="4.461559473862">
        <ele>0</ele>
        <time>2019-05-31T20:41:21Z</time>
      </trkpt>
      <trkpt lat="51.232213541193" lon="4.461761142376">
        <ele>3</ele>
        <time>2019-05-31T20:41:32Z</time>
      </trkpt>
      <trkpt lat="51.232267269172" lon="4.462205718352">
        <ele>2.6</ele>
        <time>2019-05-31T20:41:59Z</time>
      </trkpt>
      <trkpt lat="51.232149838753" lon="4.462529008235">
        <ele>0.8</ele>
        <time>2019-05-31T20:42:24Z</time>
      </trkpt>
      <trkpt lat="51.232155706083" lon="4.462578796721">
        <ele>1.2</ele>
        <time>2019-05-31T20:42:27Z</time>
      </trkpt>
      <trkpt lat="51.232103905941" lon="4.462929914512">
        <ele>0</ele>
        <time>2019-05-31T20:42:46Z</time>
      </trkpt>
      <trkpt lat="51.232089153797" lon="4.463171899965">
        <ele>4.6</ele>
        <time>2019-05-31T20:43:05Z</time>
      </trkpt>
      <trkpt lat="51.231988654816" lon="4.46341539416">
        <ele>7.4</ele>
        <time>2019-05-31T20:43:20Z</time>
      </trkpt>
      <trkpt lat="51.231869548017" lon="4.463512288924">
        <ele>4.8</ele>
        <time>2019-05-31T20:43:34Z</time>
      </trkpt>
      <trkpt lat="51.231457074718" lon="4.463217832777">
        <ele>0</ele>
        <time>2019-05-31T20:44:12Z</time>
      </trkpt>
      <trkpt lat="51.231437041977" lon="4.46320165571">
        <ele>0</ele>
        <time>2019-05-31T20:44:14Z</time>
      </trkpt>
      <trkpt lat="51.231252807815" lon="4.463141138392">
        <ele>0</ele>
        <time>2019-05-31T20:44:38Z</time>
      </trkpt>
      <trkpt lat="51.231030352189" lon="4.463266447797">
        <ele>1.6</ele>
        <time>2019-05-31T20:45:10Z</time>
      </trkpt>
      <trkpt lat="51.230591224448" lon="4.463426961182">
        <ele>7</ele>
        <time>2019-05-31T20:45:53Z</time>
      </trkpt>
      <trkpt lat="51.230407744657" lon="4.463673053766">
        <ele>7</ele>
        <time>2019-05-31T20:46:27Z</time>
      </trkpt>
      <trkpt lat="51.230147989576" lon="4.46407002055">
        <ele>0</ele>
        <time>2019-05-31T20:47:07Z</time>
      </trkpt>
      <trkpt lat="51.230005916371" lon="4.464215949429">
        <ele>4.6</ele>
        <time>2019-05-31T20:48:17Z</time>
      </trkpt>
      <trkpt lat="51.229697210994" lon="4.464291805624">
        <ele>1.6</ele>
        <time>2019-05-31T20:48:45Z</time>
      </trkpt>
      <trkpt lat="51.229333268896" lon="4.464340253006">
        <ele>2.4</ele>
        <time>2019-05-31T20:49:24Z</time>
      </trkpt>
      <trkpt lat="51.228926076194" lon="4.464375289348">
        <ele>9.6</ele>
        <time>2019-05-31T20:50:16Z</time>
      </trkpt>
      <trkpt lat="51.228798671314" lon="4.464270431779">
        <ele>4.2</ele>
        <time>2019-05-31T20:50:38Z</time>
      </trkpt>
      <trkpt lat="51.22857856262" lon="4.464119054665">
        <ele>3.4</ele>
        <time>2019-05-31T20:51:17Z</time>
      </trkpt>
      <trkpt lat="51.228502371149" lon="4.463801548293">
        <ele>2.6</ele>
        <time>2019-05-31T20:51:46Z</time>
      </trkpt>
      <trkpt lat="51.22847211249" lon="4.463511450734">
        <ele>1.4</ele>
        <time>2019-05-31T20:52:13Z</time>
      </trkpt>
      <trkpt lat="51.228323166127" lon="4.463359905982">
        <ele>6.6</ele>
        <time>2019-05-31T20:52:36Z</time>
      </trkpt>
      <trkpt lat="51.227954865441" lon="4.463064946921">
        <ele>4</ele>
        <time>2019-05-31T20:53:37Z</time>
      </trkpt>
      <trkpt lat="51.227942544048" lon="4.463035358814">
        <ele>4</ele>
        <time>2019-05-31T20:53:39Z</time>
      </trkpt>
      <trkpt lat="51.227835674823" lon="4.462346869548">
        <ele>8.4</ele>
        <time>2019-05-31T20:54:23Z</time>
      </trkpt>
      <trkpt lat="51.227796950445" lon="4.461657542092">
        <ele>9</ele>
        <time>2019-05-31T20:55:23Z</time>
      </trkpt>
      <trkpt lat="51.22783760266" lon="4.461411198051">
        <ele>17.2</ele>
        <time>2019-05-31T20:55:48Z</time>
      </trkpt>
      <trkpt lat="51.227785802518" lon="4.460804516129">
        <ele>13.2</ele>
        <time>2019-05-31T20:56:28Z</time>
      </trkpt>
      <trkpt lat="51.227822850516" lon="4.460688007719">
        <ele>8.4</ele>
        <time>2019-05-31T20:56:35Z</time>
      </trkpt>
      <trkpt lat="51.227902730023" lon="4.460434287606">
        <ele>6.4</ele>
        <time>2019-05-31T20:57:05Z</time>
      </trkpt>
      <trkpt lat="51.228149325521" lon="4.460391456097">
        <ele>6.2</ele>
        <time>2019-05-31T20:57:28Z</time>
      </trkpt>
      <trkpt lat="51.228341606307" lon="4.460621874528">
        <ele>8.8</ele>
        <time>2019-05-31T20:58:02Z</time>
      </trkpt>
      <trkpt lat="51.228438836347" lon="4.460817424255">
        <ele>8.6</ele>
        <time>2019-05-31T20:58:22Z</time>
      </trkpt>
      <trkpt lat="51.228643270888" lon="4.461006268462">
        <ele>11.2</ele>
        <time>2019-05-31T20:58:49Z</time>
      </trkpt>
      <trkpt lat="51.229013247954" lon="4.4613417121">
        <ele>39.8</ele>
        <time>2019-05-31T20:59:35Z</time>
      </trkpt>
      <trkpt lat="51.229182813791" lon="4.461156304472">
        <ele>30</ele>
        <time>2019-05-31T20:59:59Z</time>
      </trkpt>
      <trkpt lat="51.229282809858" lon="4.460871655148">
        <ele>19.8</ele>
        <time>2019-05-31T21:00:25Z</time>
      </trkpt>
      <trkpt lat="51.229059013128" lon="4.460568984739">
        <ele>1.4</ele>
        <time>2019-05-31T21:01:03Z</time>
      </trkpt>
      <trkpt lat="51.228764473162" lon="4.460068752947">
        <ele>6.6</ele>
        <time>2019-05-31T21:01:39Z</time>
      </trkpt>
      <trkpt lat="51.228678391049" lon="4.459785780003">
        <ele>6.2</ele>
        <time>2019-05-31T21:01:52Z</time>
      </trkpt>
      <trkpt lat="51.228631787685" lon="4.459098380384">
        <ele>4.2</ele>
        <time>2019-05-31T21:02:28Z</time>
      </trkpt>
      <trkpt lat="51.228656598109" lon="4.459060075101">
        <ele>4</ele>
        <time>2019-05-31T21:02:32Z</time>
      </trkpt>
      <trkpt lat="51.228632542056" lon="4.458744496566">
        <ele>7</ele>
        <time>2019-05-31T21:02:55Z</time>
      </trkpt>
      <trkpt lat="51.228664309457" lon="4.458196320306">
        <ele>9.2</ele>
        <time>2019-05-31T21:03:42Z</time>
      </trkpt>
      <trkpt lat="51.229111316184" lon="4.45807528567">
        <ele>10.6</ele>
        <time>2019-05-31T21:04:20Z</time>
      </trkpt>
      <trkpt lat="51.229543403129" lon="4.457885519454">
        <ele>10</ele>
        <time>2019-05-31T21:04:59Z</time>
      </trkpt>
      <trkpt lat="51.2296950317" lon="4.457884513626">
        <ele>13.4</ele>
        <time>2019-05-31T21:05:54Z</time>
      </trkpt>
    </trkseg>
  </trk>
</gpx>